createdAt,value
2022-10-19T00:00:50.667Z,21.33
2022-10-19T00:03:20.753Z,21.24
2022-10-19T00:05:50.039Z,21.31
2022-10-19T00:08:16.868Z,21.27
2022-10-19T00:10:43.731Z,21.21
2022-10-19T00:13:10.583Z,21.22
2022-10-19T00:15:40.591Z,21.21
2022-10-19T00:18:08.206Z,21.18
2022-10-19T00:20:35.968Z,21.04
2022-10-19T00:23:02.966Z,21.09
2022-10-19T00:25:29.819Z,21.07
2022-10-19T00:27:56.670Z,21.05
2022-10-19T00:30:23.515Z,21.03
2022-10-19T00:32:50.359Z,21.00
2022-10-19T00:35:17.201Z,20.83
2022-10-19T00:37:44.129Z,20.96
2022-10-19T00:40:11.283Z,20.94
2022-10-19T00:42:38.083Z,20.91
2022-10-19T00:45:09.536Z,20.88
2022-10-19T00:47:36.411Z,20.84
2022-10-19T00:50:03.508Z,20.81
2022-10-19T00:52:30.484Z,20.77
2022-10-19T00:54:57.696Z,20.76
2022-10-19T00:57:26.344Z,20.79
2022-10-19T00:59:53.231Z,20.77
2022-10-19T01:02:20.204Z,20.75
2022-10-19T01:04:49.077Z,20.63
2022-10-19T01:07:15.953Z,20.67
2022-10-19T01:09:42.840Z,20.66
2022-10-19T01:12:24.491Z,20.64
2022-10-19T01:15:23.798Z,20.38
2022-10-19T01:17:58.341Z,20.57
2022-10-19T01:20:40.517Z,20.53
2022-10-19T01:23:34.654Z,20.25
2022-10-19T01:26:04.133Z,20.47
2022-10-19T01:28:44.919Z,20.45
2022-10-19T01:31:33.859Z,20.52
2022-10-19T01:34:10.882Z,20.49
2022-10-19T01:36:51.554Z,20.24
2022-10-19T01:39:30.628Z,20.44
2022-10-19T01:42:08.454Z,20.43
2022-10-19T01:45:02.703Z,20.42
2022-10-19T01:47:36.054Z,20.40
2022-10-19T01:50:06.704Z,20.37
2022-10-19T01:52:33.795Z,20.37
2022-10-19T01:55:00.974Z,20.34
2022-10-19T01:57:35.042Z,20.34
2022-10-19T02:00:07.479Z,20.33
2022-10-19T02:02:45.515Z,20.33
2022-10-19T02:05:12.478Z,20.18
2022-10-19T02:07:40.438Z,20.33
2022-10-19T02:10:07.662Z,20.41
2022-10-19T02:12:34.872Z,20.55
2022-10-19T02:15:03.898Z,20.68
2022-10-19T02:17:35.862Z,20.79
2022-10-19T02:20:02.727Z,20.87
2022-10-19T02:22:29.574Z,20.87
2022-10-19T02:24:56.439Z,20.94
2022-10-19T02:27:23.235Z,21.07
2022-10-19T02:29:50.194Z,21.13
2022-10-19T02:32:17.125Z,21.20
2022-10-19T02:34:43.966Z,21.26
2022-10-19T02:37:10.892Z,21.32
2022-10-19T02:39:38.580Z,21.42
2022-10-19T02:42:18.242Z,21.51
2022-10-19T02:44:50.781Z,21.60
2022-10-19T02:47:19.795Z,21.49
2022-10-19T02:49:46.593Z,21.67
2022-10-19T02:52:13.636Z,21.78
2022-10-19T02:54:42.395Z,21.87
2022-10-19T02:57:20.241Z,21.91
2022-10-19T02:59:47.147Z,21.91
2022-10-19T03:02:14.781Z,21.98
2022-10-19T03:04:41.848Z,21.99
2022-10-19T03:07:09.456Z,22.07
2022-10-19T03:09:36.356Z,22.11
2022-10-19T03:12:03.856Z,22.18
2022-10-19T03:14:30.776Z,22.25
2022-10-19T03:16:57.652Z,22.38
2022-10-19T03:19:24.591Z,22.42
2022-10-19T03:21:51.475Z,22.33
2022-10-19T03:24:18.424Z,22.44
2022-10-19T03:26:45.533Z,22.49
2022-10-19T03:29:12.502Z,22.55
2022-10-19T03:31:39.369Z,22.57
2022-10-19T03:34:06.427Z,22.63
2022-10-19T03:36:35.310Z,22.63
2022-10-19T03:39:04.202Z,22.66
2022-10-19T03:41:34.162Z,22.53
2022-10-19T03:46:33.359Z,22.77
2022-10-19T03:49:00.382Z,22.69
2022-10-19T03:51:27.977Z,22.80
2022-10-19T03:53:56.248Z,22.74
2022-10-19T03:56:24.492Z,22.78
2022-10-19T03:58:51.755Z,22.83
2022-10-19T04:01:23.566Z,22.82
2022-10-19T04:03:54.737Z,22.71
2022-10-19T04:06:24.324Z,22.73
2022-10-19T04:08:51.245Z,22.92
2022-10-19T04:11:20.209Z,22.87
2022-10-19T04:13:51.194Z,22.90
2022-10-19T04:16:18.408Z,22.86
2022-10-19T04:18:45.461Z,22.99
2022-10-19T04:21:25.549Z,23.05
2022-10-19T04:23:53.689Z,23.02
2022-10-19T04:26:20.882Z,22.98
2022-10-19T04:28:47.914Z,22.87
2022-10-19T04:31:14.857Z,22.98
2022-10-19T04:33:41.884Z,23.04
2022-10-19T04:36:10.353Z,23.03
2022-10-19T04:38:37.294Z,22.99
2022-10-19T04:41:15.240Z,23.07
2022-10-19T04:43:42.348Z,23.09
2022-10-19T04:46:10.807Z,23.15
2022-10-19T04:48:38.163Z,23.02
2022-10-19T04:51:05.166Z,23.05
2022-10-19T04:53:32.514Z,23.11
2022-10-19T04:55:59.548Z,23.19
2022-10-19T04:58:26.396Z,23.22
2022-10-19T05:00:53.546Z,23.28
2022-10-19T05:03:20.611Z,23.26
2022-10-19T05:05:47.506Z,23.21
2022-10-19T05:08:14.393Z,23.25
2022-10-19T05:10:44.234Z,23.30
2022-10-19T05:13:14.171Z,23.32
2022-10-19T05:15:41.190Z,23.21
2022-10-19T05:18:08.240Z,23.24
2022-10-19T05:20:35.366Z,23.30
2022-10-19T05:23:06.285Z,23.34
2022-10-19T05:25:34.451Z,23.38
2022-10-19T05:28:01.460Z,23.34
2022-10-19T05:30:28.595Z,23.07
2022-10-19T05:32:55.722Z,22.98
2022-10-19T05:35:22.917Z,22.98
2022-10-19T05:37:54.685Z,22.98
2022-10-19T05:40:21.682Z,22.92
2022-10-19T05:42:48.623Z,22.89
2022-10-19T05:45:15.926Z,22.84
2022-10-19T05:47:42.854Z,22.80
2022-10-19T05:50:11.374Z,22.73
2022-10-19T05:52:38.925Z,22.63
2022-10-19T05:55:06.470Z,22.50
2022-10-19T05:57:33.587Z,22.25
2022-10-19T06:00:00.793Z,22.19
2022-10-19T06:02:27.877Z,22.16
2022-10-19T06:04:54.953Z,22.14
2022-10-19T06:07:21.971Z,22.10
2022-10-19T06:09:48.964Z,22.06
2022-10-19T06:12:16.425Z,22.04
2022-10-19T06:14:43.599Z,22.00
2022-10-19T06:17:10.882Z,21.93
2022-10-19T06:19:37.935Z,21.86
2022-10-19T06:22:04.989Z,21.79
2022-10-19T06:24:31.883Z,21.73
2022-10-19T06:26:58.829Z,21.70
2022-10-19T06:29:25.963Z,21.66
2022-10-19T06:31:54.232Z,21.68
2022-10-19T06:34:21.177Z,21.66
2022-10-19T06:36:48.210Z,21.64
2022-10-19T06:39:15.127Z,21.60
2022-10-19T06:41:42.037Z,21.55
2022-10-19T06:44:18.772Z,21.56
2022-10-19T06:46:45.820Z,21.54
2022-10-19T06:49:13.072Z,21.46
2022-10-19T06:51:40.823Z,21.43
2022-10-19T06:54:07.753Z,21.37
2022-10-19T06:56:34.673Z,21.27
2022-10-19T06:59:01.638Z,21.25
2022-10-19T07:01:28.642Z,21.27
2022-10-19T07:03:55.754Z,21.26
2022-10-19T07:06:24.236Z,21.25
2022-10-19T07:08:52.043Z,21.21
2022-10-19T07:11:19.875Z,21.23
2022-10-19T07:13:46.930Z,21.21
2022-10-19T07:16:19.520Z,21.20
2022-10-19T07:18:48.418Z,21.16
2022-10-19T07:21:15.747Z,21.06
2022-10-19T07:23:43.996Z,21.11
2022-10-19T07:26:23.533Z,21.14
2022-10-19T07:28:50.747Z,21.14
2022-10-19T07:31:20.220Z,21.15
2022-10-19T07:33:48.238Z,21.16
2022-10-19T07:36:15.213Z,21.12
2022-10-19T07:38:42.092Z,21.05
2022-10-19T07:41:12.742Z,21.00
2022-10-19T07:43:39.967Z,20.96
2022-10-19T07:46:26.458Z,20.86
2022-10-19T07:48:53.837Z,20.92
2022-10-19T07:51:20.868Z,20.87
2022-10-19T07:53:48.020Z,20.85
2022-10-19T07:56:17.057Z,20.84
2022-10-19T07:58:44.009Z,20.80
2022-10-19T08:01:11.864Z,20.79
2022-10-19T08:06:26.140Z,20.64
2022-10-19T08:08:53.458Z,20.65
2022-10-19T08:11:33.716Z,20.75
2022-10-19T08:14:02.816Z,20.62
2022-10-19T08:16:33.570Z,20.59
2022-10-19T08:19:02.909Z,20.70
2022-10-19T08:21:30.099Z,20.69
2022-10-19T08:23:57.333Z,20.73
2022-10-19T08:26:24.410Z,20.75
2022-10-19T08:28:51.353Z,20.74
2022-10-19T08:31:21.954Z,20.75
2022-10-19T08:33:51.668Z,20.76
2022-10-19T08:36:21.600Z,20.73
2022-10-19T08:38:49.041Z,20.74
2022-10-19T08:41:15.805Z,20.73
2022-10-19T08:44:06.283Z,20.57
2022-10-19T08:46:42.170Z,20.71
2022-10-19T08:49:10.145Z,20.72
2022-10-19T08:51:38.508Z,20.61
2022-10-19T08:54:12.243Z,20.70
2022-10-19T08:56:51.049Z,20.64
2022-10-19T08:59:45.398Z,20.64
2022-10-19T09:02:22.822Z,20.62
2022-10-19T09:04:54.495Z,20.59
2022-10-19T09:07:26.349Z,20.58
2022-10-19T09:10:09.767Z,20.58
2022-10-19T09:12:58.491Z,20.58
2022-10-19T09:15:46.446Z,20.59
2022-10-19T09:18:19.325Z,20.59
2022-10-19T09:20:47.972Z,20.60
2022-10-19T09:23:23.556Z,20.64
2022-10-19T09:25:50.875Z,20.56
2022-10-19T09:28:36.656Z,20.57
2022-10-19T09:31:07.363Z,20.55
2022-10-19T09:33:36.194Z,20.55
2022-10-19T09:36:03.522Z,20.45
2022-10-19T09:38:31.628Z,20.60
2022-10-19T09:40:59.256Z,20.38
2022-10-19T09:43:27.301Z,20.64
2022-10-19T09:45:57.547Z,20.64
2022-10-19T09:48:27.571Z,20.64
2022-10-19T09:51:01.848Z,20.49
2022-10-19T09:53:29.120Z,20.58
2022-10-19T09:56:07.632Z,20.36
2022-10-19T09:58:34.871Z,20.47
2022-10-19T10:01:02.496Z,20.55
2022-10-19T10:03:33.304Z,20.54
2022-10-19T10:06:07.960Z,20.51
2022-10-19T10:08:37.830Z,20.49
2022-10-19T10:11:12.601Z,20.51
2022-10-19T10:13:50.407Z,20.55
2022-10-19T10:16:18.751Z,20.57
2022-10-19T10:19:07.892Z,20.61
2022-10-19T10:21:52.599Z,20.60
2022-10-19T10:24:23.554Z,20.63
2022-10-19T10:26:52.396Z,20.39
2022-10-19T10:29:23.075Z,20.64
2022-10-19T10:31:55.012Z,20.63
2022-10-19T10:35:01.036Z,20.66
2022-10-19T10:37:36.091Z,20.66
2022-10-19T10:40:04.845Z,20.52
2022-10-19T10:42:36.161Z,20.68
2022-10-19T10:45:03.522Z,20.65
2022-10-19T10:47:30.800Z,20.68
2022-10-19T10:50:02.907Z,20.76
2022-10-19T10:52:31.531Z,20.73
2022-10-19T10:55:04.787Z,20.72
2022-10-19T10:57:37.754Z,20.77
2022-10-19T11:00:14.462Z,20.79
2022-10-19T11:02:57.593Z,20.81
2022-10-19T11:05:42.362Z,20.82
2022-10-19T11:08:12.246Z,20.84
2022-10-19T11:11:20.274Z,20.84
2022-10-19T11:14:00.619Z,20.87
2022-10-19T11:16:33.549Z,20.87
2022-10-19T11:19:19.264Z,20.94
2022-10-19T11:21:54.415Z,20.96
2022-10-19T11:24:35.861Z,21.00
2022-10-19T11:27:10.951Z,20.99
2022-10-19T11:30:19.158Z,21.01
2022-10-19T11:32:51.195Z,20.95
2022-10-19T11:35:37.287Z,20.89
2022-10-19T11:38:20.140Z,21.07
2022-10-19T11:41:18.136Z,21.10
2022-10-19T11:43:51.589Z,21.10
2022-10-19T11:46:23.765Z,21.10
2022-10-19T11:49:12.181Z,21.10
2022-10-19T11:51:47.168Z,21.12
2022-10-19T11:54:23.737Z,21.16
2022-10-19T11:57:03.574Z,21.14
2022-10-19T11:59:48.080Z,21.20
2022-10-19T12:02:34.154Z,21.19
2022-10-19T12:05:03.786Z,21.08
2022-10-19T12:08:01.618Z,21.23
2022-10-19T12:10:38.878Z,20.98
2022-10-19T12:13:08.951Z,21.12
2022-10-19T12:15:38.546Z,21.23
2022-10-19T12:18:29.239Z,21.28
2022-10-19T12:20:57.674Z,21.24
2022-10-19T12:23:31.574Z,21.28
2022-10-19T12:26:00.167Z,21.32
2022-10-19T12:28:28.815Z,21.34
2022-10-19T12:30:56.135Z,21.36
2022-10-19T12:33:26.900Z,21.18
2022-10-19T12:36:12.567Z,21.44
2022-10-19T12:39:00.015Z,21.44
2022-10-19T12:41:30.340Z,21.46
2022-10-19T12:44:14.984Z,21.33
2022-10-19T12:46:49.867Z,21.49
2022-10-19T12:49:28.910Z,21.51
2022-10-19T12:51:57.047Z,21.25
2022-10-19T12:54:25.318Z,21.51
2022-10-19T12:56:54.128Z,21.56
2022-10-19T12:59:29.220Z,21.56
2022-10-19T13:01:57.206Z,21.55
2022-10-19T13:04:28.959Z,21.61
2022-10-19T13:07:03.003Z,21.64
2022-10-19T13:09:36.104Z,21.64
2022-10-19T13:12:22.034Z,21.68
2022-10-19T13:14:52.527Z,21.70
2022-10-19T13:17:37.767Z,21.72
2022-10-19T13:20:13.691Z,21.74
2022-10-19T13:22:46.420Z,21.81
2022-10-19T13:25:16.262Z,21.92
2022-10-19T13:27:44.222Z,21.95
2022-10-19T13:30:38.346Z,22.00
2022-10-19T13:33:33.133Z,21.96
2022-10-19T13:36:00.403Z,21.87
2022-10-19T13:38:30.392Z,21.84
2022-10-19T13:41:03.517Z,21.82
2022-10-19T13:43:34.855Z,21.85
2022-10-19T13:46:16.251Z,21.89
2022-10-19T13:49:01.659Z,21.91
2022-10-19T13:51:40.780Z,21.93
2022-10-19T13:55:04.682Z,21.97
2022-10-19T13:58:04.732Z,22.04
2022-10-19T14:00:59.146Z,22.07
2022-10-19T14:03:29.063Z,22.09
2022-10-19T14:06:12.466Z,22.11
2022-10-19T14:08:53.537Z,22.09
2022-10-19T14:11:56.322Z,21.94
2022-10-19T14:14:24.256Z,22.07
2022-10-19T14:16:57.136Z,22.07
2022-10-19T14:19:29.461Z,22.07
2022-10-19T14:21:58.499Z,22.10
2022-10-19T14:24:35.685Z,22.10
2022-10-19T14:27:03.613Z,22.06
2022-10-19T14:29:31.528Z,21.94
2022-10-19T14:31:59.014Z,22.07
2022-10-19T14:34:25.840Z,22.05
2022-10-19T14:36:52.784Z,22.04
2022-10-19T14:39:29.698Z,22.02
2022-10-19T14:41:57.168Z,22.03
2022-10-19T14:44:37.700Z,22.03
2022-10-19T14:47:17.058Z,22.00
2022-10-19T14:49:43.975Z,21.98
2022-10-19T14:52:11.562Z,21.98
2022-10-19T14:54:42.578Z,21.95
2022-10-19T14:57:19.029Z,21.80
2022-10-19T14:59:47.970Z,21.86
2022-10-19T15:02:21.642Z,21.90
2022-10-19T15:04:48.570Z,21.88
2022-10-19T15:07:37.848Z,21.87
2022-10-19T15:10:31.279Z,21.74
2022-10-19T15:13:03.725Z,21.81
2022-10-19T15:15:34.698Z,21.79
2022-10-19T15:18:01.663Z,21.73
2022-10-19T15:20:49.305Z,21.72
2022-10-19T15:23:31.997Z,21.69
2022-10-19T15:25:59.814Z,21.65
2022-10-19T15:28:40.599Z,21.63
2022-10-19T15:31:28.189Z,21.48
2022-10-19T15:33:56.817Z,21.53
2022-10-19T15:36:24.023Z,21.48
2022-10-19T15:39:25.215Z,21.41
2022-10-19T15:41:54.164Z,21.41
2022-10-19T15:44:35.767Z,21.38
2022-10-19T15:47:23.460Z,21.33
2022-10-19T15:50:00.966Z,21.35
2022-10-19T15:52:32.813Z,21.33
2022-10-19T15:55:00.139Z,21.32
2022-10-19T15:57:32.650Z,21.21
2022-10-19T16:00:01.496Z,21.26
2022-10-19T16:02:31.118Z,21.23
2022-10-19T16:04:58.152Z,21.20
2022-10-19T16:07:29.446Z,21.18
2022-10-19T16:09:56.538Z,21.17
2022-10-19T16:12:23.943Z,21.14
2022-10-19T16:14:50.876Z,21.08
2022-10-19T16:17:17.742Z,21.03
2022-10-19T16:19:44.912Z,21.02
2022-10-19T16:22:12.308Z,20.99
2022-10-19T16:24:39.122Z,20.98
2022-10-19T16:27:06.490Z,20.97
2022-10-19T16:29:33.303Z,20.92
2022-10-19T16:32:00.183Z,20.88
2022-10-19T16:34:27.304Z,20.84
2022-10-19T16:36:54.581Z,20.82
2022-10-19T16:39:21.477Z,20.81
2022-10-19T16:41:48.373Z,20.79
2022-10-19T16:44:15.895Z,20.73
2022-10-19T16:46:42.746Z,20.68
2022-10-19T16:49:09.621Z,20.67
2022-10-19T16:51:37.658Z,20.68
2022-10-19T16:54:05.626Z,20.67
2022-10-19T16:56:33.004Z,20.63
2022-10-19T16:59:04.593Z,20.61
2022-10-19T17:01:32.585Z,20.45
2022-10-19T17:03:59.568Z,20.57
2022-10-19T17:06:26.619Z,20.53
2022-10-19T17:09:29.783Z,20.51
2022-10-19T17:11:40.774Z,20.42
2022-10-19T17:14:10.460Z,20.41
2022-10-19T17:16:37.459Z,20.39
2022-10-19T17:19:05.037Z,20.32
2022-10-19T17:21:33.621Z,20.32
2022-10-19T17:24:02.182Z,20.25
2022-10-19T17:26:33.770Z,20.25
2022-10-19T17:29:00.811Z,20.21
2022-10-19T17:31:27.916Z,20.16
2022-10-19T17:33:54.965Z,20.11
2022-10-19T17:36:25.233Z,20.12
2022-10-19T17:38:55.555Z,20.09
2022-10-19T17:41:22.841Z,20.05
2022-10-19T17:43:51.755Z,20.03
2022-10-19T17:46:23.110Z,20.03
2022-10-19T17:48:50.019Z,19.99
2022-10-19T17:51:27.684Z,19.95
2022-10-19T17:53:56.414Z,19.88
2022-10-19T17:56:23.313Z,19.85
2022-10-19T17:58:50.379Z,19.82
2022-10-19T18:01:18.297Z,19.83
2022-10-19T18:03:45.108Z,19.77
2022-10-19T18:06:13.355Z,19.61
2022-10-19T18:08:44.698Z,19.65
2022-10-19T18:11:16.384Z,19.66
2022-10-19T18:13:43.420Z,19.61
2022-10-19T18:16:12.372Z,19.47
2022-10-19T18:18:40.054Z,19.33
2022-10-19T18:21:08.028Z,19.54
2022-10-19T18:23:35.175Z,19.53
2022-10-19T18:26:03.170Z,19.51
2022-10-19T18:28:31.343Z,19.45
2022-10-19T18:31:11.262Z,19.39
2022-10-19T18:33:38.231Z,19.32
2022-10-19T18:36:05.844Z,19.42
2022-10-19T18:38:32.734Z,19.39
2022-10-19T18:41:03.671Z,19.25
2022-10-19T18:43:30.679Z,19.33
2022-10-19T18:45:58.297Z,19.30
2022-10-19T18:48:26.004Z,19.28
2022-10-19T18:50:52.836Z,19.25
2022-10-19T18:53:19.688Z,19.22
2022-10-19T18:55:46.655Z,19.19
2022-10-19T18:58:13.528Z,19.17
2022-10-19T19:00:45.633Z,18.91
2022-10-19T19:03:12.698Z,19.13
2022-10-19T19:05:39.564Z,19.09
2022-10-19T19:08:06.482Z,19.07
2022-10-19T19:10:33.277Z,19.04
2022-10-19T19:13:00.118Z,19.03
2022-10-19T19:15:27.139Z,18.96
2022-10-19T19:17:54.808Z,18.99
2022-10-19T19:20:21.636Z,18.96
2022-10-19T19:22:48.501Z,18.92
2022-10-19T19:25:15.516Z,18.85
2022-10-19T19:27:42.344Z,18.83
2022-10-19T19:30:09.937Z,18.82
2022-10-19T19:32:37.067Z,18.83
2022-10-19T19:35:04.200Z,18.82
2022-10-19T19:37:31.120Z,18.79
2022-10-19T19:39:57.950Z,18.78
2022-10-19T19:42:27.761Z,18.72
2022-10-19T19:44:54.913Z,18.62
2022-10-19T19:47:21.820Z,18.71
2022-10-19T19:49:48.631Z,18.69
2022-10-19T19:52:15.493Z,18.65
2022-10-19T19:54:42.301Z,18.63
2022-10-19T19:57:09.223Z,18.60
2022-10-19T19:59:36.238Z,18.58
2022-10-19T20:02:03.177Z,18.55
2022-10-19T20:04:30.087Z,18.54
2022-10-19T20:06:56.944Z,18.50
2022-10-19T20:09:23.766Z,18.46
2022-10-19T20:11:50.566Z,18.45
2022-10-19T20:14:18.829Z,18.41
2022-10-19T20:16:45.647Z,18.38
2022-10-19T20:19:13.731Z,18.35
2022-10-19T20:21:40.764Z,18.33
2022-10-19T20:24:07.683Z,18.30
2022-10-19T20:26:34.612Z,18.28
2022-10-19T20:29:02.547Z,18.26
2022-10-19T20:31:29.816Z,18.23
2022-10-19T20:33:56.643Z,18.19
2022-10-19T20:36:24.983Z,17.92
2022-10-19T20:38:52.680Z,18.13
2022-10-19T20:41:20.454Z,18.07
2022-10-19T20:43:47.416Z,18.03
2022-10-19T20:46:18.516Z,18.04
2022-10-19T20:48:45.546Z,18.02
2022-10-19T20:51:19.132Z,17.99
2022-10-19T20:53:47.636Z,17.95
2022-10-19T20:56:15.733Z,17.92
2022-10-19T20:58:43.751Z,17.90
2022-10-19T21:01:15.255Z,17.89
2022-10-19T21:03:49.023Z,17.88
2022-10-19T21:06:15.878Z,17.85
2022-10-19T21:08:42.826Z,17.79
2022-10-19T21:11:18.014Z,17.65
2022-10-19T21:13:45.165Z,17.76
2022-10-19T21:16:15.952Z,17.70
2022-10-19T21:18:43.161Z,17.64
2022-10-19T21:21:29.704Z,17.71
2022-10-19T21:24:01.257Z,17.67
2022-10-19T21:26:28.348Z,17.34
2022-10-19T21:28:55.698Z,17.62
2022-10-19T21:31:23.304Z,17.60
2022-10-19T21:33:50.893Z,17.56
2022-10-19T21:36:18.031Z,17.39
2022-10-19T21:38:44.955Z,17.50
2022-10-19T21:41:13.595Z,17.47
2022-10-19T21:43:40.514Z,17.43
2022-10-19T21:46:08.788Z,17.41
2022-10-19T21:48:35.632Z,17.39
2022-10-19T21:51:31.975Z,17.33
2022-10-19T21:53:58.885Z,17.29
2022-10-19T21:56:25.846Z,17.25
2022-10-19T21:58:53.397Z,17.23
2022-10-19T22:01:22.156Z,17.16
2022-10-19T22:03:49.025Z,17.16
2022-10-19T22:06:16.035Z,17.12
2022-10-19T22:08:46.413Z,17.07
2022-10-19T22:11:13.912Z,16.87
2022-10-19T22:13:40.888Z,17.02
2022-10-19T22:16:08.993Z,16.99
2022-10-19T22:18:35.870Z,16.92
2022-10-19T22:21:10.830Z,16.81
2022-10-19T22:23:37.753Z,16.87
2022-10-19T22:26:13.546Z,16.83
2022-10-19T22:28:40.391Z,16.82
2022-10-19T22:31:07.352Z,16.76
2022-10-19T22:33:34.508Z,16.73
2022-10-19T22:36:01.600Z,16.69
2022-10-19T22:38:28.608Z,16.56
2022-10-19T22:41:32.909Z,16.67
2022-10-19T22:44:55.145Z,16.62
2022-10-19T22:47:40.389Z,16.59
2022-10-19T22:50:43.797Z,16.56
2022-10-19T22:53:28.958Z,16.54
2022-10-19T22:55:55.838Z,16.52
2022-10-19T22:58:22.686Z,16.49
2022-10-19T23:01:18.659Z,16.48
2022-10-19T23:03:45.523Z,16.43
2022-10-19T23:06:13.509Z,16.42
2022-10-19T23:08:40.367Z,16.41
2022-10-19T23:11:07.238Z,16.37
2022-10-19T23:13:34.064Z,16.35
2022-10-19T23:16:00.918Z,16.33
2022-10-19T23:18:31.023Z,16.32
2022-10-19T23:21:02.495Z,16.27
2022-10-19T23:23:29.691Z,16.24
2022-10-19T23:26:04.547Z,16.21
2022-10-19T23:28:31.794Z,16.21
2022-10-19T23:30:58.885Z,16.20
2022-10-19T23:33:26.016Z,16.18
2022-10-19T23:35:52.949Z,16.01
2022-10-19T23:38:19.739Z,16.15
2022-10-19T23:40:46.577Z,16.09
2022-10-19T23:43:13.427Z,16.08
2022-10-19T23:45:40.248Z,16.10
2022-10-19T23:48:07.105Z,15.82
2022-10-19T23:50:33.897Z,16.04
2022-10-19T23:53:00.722Z,16.03
2022-10-19T23:55:27.562Z,16.00
2022-10-19T23:57:54.381Z,15.99
